Flight Track Log - Related Links

Times and Time Zones

All times are in EST time to prevent confusion due to time zone crossing. See the ANA1187 flight status page for this flight to view local times or setup timezone preferences in your user account.

Time Position Orientation Groundspeed Altitude Reporting Facility
EST Latitude Longitude Course Direction KTS MPH feet Rate Location/Type
Wed 11:46:34 PM 35.5380 139.8760 133° Southeast 186 214 3,800  Level FlightAware ADS-B
Wed 11:46:46 PM 35.5290 139.8840 144° Southeast 198 228 4,200 1,800 Climbing FlightAware ADS-B
Wed 11:47:04 PM 35.5120 139.8890 167° South 219 252 4,700 1,680 Climbing FlightAware ADS-B
Wed 11:47:11 PM 35.5060 139.8880 188° South 227 261 4,900 2,727 Climbing FlightAware ADS-B
Wed 11:47:15 PM 35.5010 139.8860 198° South 230 265 5,200 2,609 Climbing FlightAware ADS-B
Wed 11:47:34 PM 35.4810 139.8760 202° Southwest 247 284 5,900 2,516 Climbing FlightAware ADS-B
Wed 11:47:46 PM 35.4690 139.8670 211° Southwest 256 295 6,500 3,243 Climbing FlightAware ADS-B
Wed 11:48:11 PM 35.4440 139.8480 212° Southwest 270 311 7,900 3,366 Climbing FlightAware ADS-B
Wed 11:48:27 PM 35.4270 139.8340 214° Southwest 274 315 8,800 3,702 Climbing FlightAware ADS-B
Wed 11:48:58 PM 35.3930 139.8070 213° Southwest 283 326 10,800 2,852 Climbing FlightAware ADS-B
Wed 11:49:28 PM 35.3570 139.7800 211° Southwest 318 366 11,700 1,932 Climbing FlightAware ADS-B
Wed 11:49:57 PM 35.3190 139.7500 213° Southwest 347 399 12,700 2,955 Climbing FlightAware ADS-B
Wed 11:50:35 PM 35.2770 139.7000 224° Southwest 348 400 15,000 3,940 Climbing FlightAware ADS-B
Wed 11:51:04 PM 35.2450 139.6570 228° Southwest 340 391 17,100 3,763 Climbing FlightAware ADS-B
Wed 11:51:34 PM 35.2130 139.6140 228° Southwest 345 397 18,700 3,300 Climbing FlightAware ADS-B
Wed 11:52:04 PM 35.1800 139.5710 227° Southwest 347 399 20,400 3,400 Climbing FlightAware ADS-B
Wed 11:54:00 PM 35.0893 139.3643 242° Southwest  Level Estimated
Wed 11:55:00 PM 35.0423 139.2576 242° Southwest  Level Estimated
Wed 11:56:00 PM 34.9951 139.1509 242° Southwest  Level Estimated
Wed 11:57:00 PM 34.9479 139.0444 242° Southwest  Level Estimated
Wed 11:58:00 PM 34.9006 138.9381 242° Southwest  Level Estimated
Wed 11:59:00 PM 34.8531 138.8318 241° Southwest  Level Estimated
Thu 12:00:00 AM 34.8056 138.7257 241° Southwest  Level Estimated
Thu 12:01:00 AM 34.7580 138.6197 241° Southwest  Level Estimated
Thu 12:02:00 AM 34.7103 138.5138 241° Southwest  Level Estimated
Thu 12:03:00 AM 34.6625 138.4081 241° Southwest  Level Estimated
Thu 12:04:00 AM 34.6147 138.3024 241° Southwest  Level Estimated
Thu 12:05:00 AM 34.5667 138.1969 241° Southwest  Level Estimated
Thu 12:06:00 AM 34.5186 138.0916 241° Southwest  Level Estimated
Thu 12:07:00 AM 34.4705 137.9863 241° Southwest  Level Estimated
Thu 12:08:00 AM 34.4222 137.8811 241° Southwest  Level Estimated
Thu 12:09:00 AM 34.3739 137.7761 241° Southwest  Level Estimated
Thu 12:10:00 AM 34.3255 137.6712 241° Southwest  Level Estimated
Thu 12:11:00 AM 34.2770 137.5664 241° Southwest  Level Estimated
Thu 12:12:00 AM 34.2284 137.4618 241° Southwest  Level Estimated
Thu 12:13:00 AM 34.1797 137.3572 241° Southwest  Level Estimated
Thu 12:14:00 AM 34.1309 137.2528 241° Southwest  Level Estimated
Thu 12:15:00 AM 34.0821 137.1485 241° Southwest  Level Estimated
Thu 12:16:00 AM 34.0331 137.0443 240° Southwest  Level Estimated
Thu 12:17:00 AM 33.9841 136.9403 240° Southwest  Level Estimated
Thu 12:18:00 AM 33.9349 136.8363 240° Southwest  Level Estimated
Thu 12:19:00 AM 33.8857 136.7325 240° Southwest  Level Estimated
Thu 12:20:00 AM 33.8364 136.6288 240° Southwest  Level Estimated
Thu 12:21:00 AM 33.7870 136.5252 240° Southwest  Level Estimated
Thu 12:22:00 AM 33.7376 136.4218 240° Southwest  Level Estimated
Thu 12:23:00 AM 33.6880 136.3184 240° Southwest  Level Estimated
Thu 12:24:00 AM 33.6384 136.2152 240° Southwest  Level Estimated
Thu 12:25:00 AM 33.5886 136.1121 240° Southwest  Level Estimated
Thu 12:26:00 AM 33.5388 136.0091 240° Southwest  Level Estimated
Thu 12:27:00 AM 33.4889 135.9063 240° Southwest  Level Estimated
Thu 12:28:00 AM 33.4389 135.8035 240° Southwest  Level Estimated
Thu 12:29:00 AM 33.3888 135.7009 240° Southwest  Level Estimated
Thu 12:30:00 AM 33.3387 135.5984 240° Southwest  Level Estimated
Thu 12:31:00 AM 33.2884 135.4960 240° Southwest  Level Estimated
Thu 12:32:00 AM 33.2381 135.3937 240° Southwest  Level Estimated
Thu 12:33:00 AM 33.1877 135.2915 239° Southwest  Level Estimated
Thu 12:34:00 AM 33.1372 135.1895 239° Southwest  Level Estimated
Thu 12:35:00 AM 33.0867 135.0876 239° Southwest  Level Estimated
Thu 12:36:00 AM 33.0360 134.9858 239° Southwest  Level Estimated
Thu 12:37:00 AM 32.9852 134.8841 239° Southwest  Level Estimated
Thu 12:38:00 AM 32.9344 134.7825 239° Southwest  Level Estimated
Thu 12:39:00 AM 32.8835 134.6811 239° Southwest  Level Estimated
Thu 12:40:00 AM 32.8325 134.5797 239° Southwest  Level Estimated
Thu 12:41:00 AM 32.7815 134.4785 239° Southwest  Level Estimated
Thu 12:42:00 AM 32.7303 134.3774 239° Southwest  Level Estimated
Thu 12:43:00 AM 32.6791 134.2764 239° Southwest  Level Estimated
Thu 12:44:00 AM 32.6278 134.1756 239° Southwest  Level Estimated
Thu 12:45:00 AM 32.5764 134.0748 239° Southwest  Level Estimated
Thu 12:46:00 AM 32.5249 133.9742 239° Southwest  Level Estimated
Thu 12:47:00 AM 32.4734 133.8736 239° Southwest  Level Estimated
Thu 12:48:00 AM 32.4217 133.7732 239° Southwest  Level Estimated
Thu 12:49:00 AM 32.3700 133.6729 239° Southwest  Level Estimated
Thu 12:50:00 AM 32.3182 133.5728 239° Southwest  Level Estimated
Thu 12:51:00 AM 32.2664 133.4727 239° Southwest  Level Estimated
Thu 12:52:00 AM 32.2144 133.3727 238° Southwest  Level Estimated
Thu 12:53:00 AM 32.1624 133.2729 238° Southwest  Level Estimated
Thu 12:54:00 AM 32.1103 133.1732 238° Southwest  Level Estimated
Thu 12:55:00 AM 32.0581 133.0736 238° Southwest  Level Estimated
Thu 12:56:00 AM 32.0059 132.9741 238° Southwest  Level Estimated
Thu 12:57:00 AM 31.9535 132.8747 238° Southwest  Level Estimated
Thu 12:58:00 AM 31.9011 132.7754 238° Southwest  Level Estimated
Thu 12:59:00 AM 31.8486 132.6763 238° Southwest  Level Estimated
Thu 01:00:00 AM 31.7960 132.5772 238° Southwest  Level Estimated
Thu 01:01:00 AM 31.7434 132.4783 238° Southwest  Level Estimated
Thu 01:02:00 AM 31.6907 132.3795 238° Southwest  Level Estimated
Thu 01:03:00 AM 31.6379 132.2808 238° Southwest  Level Estimated
Thu 01:04:00 AM 31.5850 132.1822 238° Southwest  Level Estimated
Thu 01:05:00 AM 31.5320 132.0837 238° Southwest  Level Estimated
Thu 01:06:00 AM 31.4790 131.9853 238° Southwest  Level Estimated
Thu 01:07:00 AM 31.4259 131.8871 238° Southwest  Level Estimated
Thu 01:08:00 AM 31.3727 131.7889 238° Southwest  Level Estimated
Thu 01:09:00 AM 31.3195 131.6909 238° Southwest  Level Estimated
Thu 01:10:00 AM 31.2662 131.5930 238° Southwest  Level Estimated
Thu 01:11:00 AM 31.2128 131.4951 237° Southwest  Level Estimated
Thu 01:12:00 AM 31.1593 131.3974 237° Southwest  Level Estimated
Thu 01:13:00 AM 31.1057 131.2999 237° Southwest  Level Estimated
Thu 01:14:00 AM 31.0521 131.2024 237° Southwest  Level Estimated
Thu 01:15:00 AM 30.9984 131.1050 237° Southwest  Level Estimated
Thu 01:16:00 AM 30.9447 131.0077 237° Southwest  Level Estimated
Thu 01:17:00 AM 30.8908 130.9106 237° Southwest  Level Estimated
Thu 01:18:00 AM 30.8369 130.8136 237° Southwest  Level Estimated
Thu 01:19:00 AM 30.7829 130.7166 237° Southwest  Level Estimated
Thu 01:20:00 AM 30.7289 130.6198 237° Southwest  Level Estimated
Thu 01:21:00 AM 30.6747 130.5231 237° Southwest  Level Estimated
Thu 01:22:00 AM 30.6205 130.4265 237° Southwest  Level Estimated
Thu 01:23:00 AM 30.5663 130.3300 237° Southwest  Level Estimated
Thu 01:24:00 AM 30.5119 130.2336 237° Southwest  Level Estimated
Thu 01:25:00 AM 30.4575 130.1373 237° Southwest  Level Estimated
Thu 01:26:00 AM 30.4030 130.0411 237° Southwest  Level Estimated
Thu 01:27:00 AM 30.3485 129.9450 237° Southwest  Level Estimated
Thu 01:28:00 AM 30.2939 129.8491 237° Southwest  Level Estimated
Thu 01:29:00 AM 30.2392 129.7532 237° Southwest  Level Estimated
Thu 01:30:00 AM 30.1844 129.6575 237° Southwest  Level Estimated
Thu 01:31:00 AM 30.1296 129.5618 236° Southwest  Level Estimated
Thu 01:32:00 AM 30.0747 129.4663 236° Southwest  Level Estimated
Thu 01:33:00 AM 30.0197 129.3708 236° Southwest  Level Estimated
Thu 01:34:00 AM 29.9647 129.2755 236° Southwest  Level Estimated
Thu 01:35:00 AM 29.9096 129.1803 236° Southwest  Level Estimated
Thu 01:36:00 AM 29.8544 129.0852 236° Southwest  Level Estimated
Thu 01:37:00 AM 29.7992 128.9902 236° Southwest  Level Estimated
Thu 01:38:00 AM 29.7438 128.8953 236° Southwest  Level Estimated
Thu 01:39:00 AM 29.6885 128.8005 236° Southwest  Level Estimated
Thu 01:40:00 AM 29.6330 128.7058 236° Southwest  Level Estimated
Thu 01:41:00 AM 29.5775 128.6112 236° Southwest  Level Estimated
Thu 01:42:00 AM 29.5219 128.5167 236° Southwest  Level Estimated
Thu 01:43:00 AM 29.4663 128.4223 236° Southwest  Level Estimated
Thu 01:44:00 AM 29.4106 128.3280 236° Southwest  Level Estimated
Thu 01:45:00 AM 29.3548 128.2339 236° Southwest  Level Estimated
Thu 01:46:00 AM 29.2989 128.1398 236° Southwest  Level Estimated
Thu 01:47:00 AM 29.2430 128.0458 236° Southwest  Level Estimated
Thu 01:48:00 AM 29.1870 127.9519 236° Southwest  Level Estimated
Thu 01:49:00 AM 29.1310 127.8582 236° Southwest  Level Estimated
Thu 01:50:00 AM 29.0749 127.7645 236° Southwest  Level Estimated
Thu 01:51:00 AM 29.0187 127.6710 236° Southwest  Level Estimated
Thu 01:52:00 AM 28.9625 127.5775 235° Southwest  Level Estimated
Thu 01:53:00 AM 28.9062 127.4841 235° Southwest  Level Estimated
Thu 01:54:00 AM 28.8498 127.3909 235° Southwest  Level Estimated
Thu 01:55:00 AM 28.7934 127.2977 235° Southwest  Level Estimated
Thu 01:56:00 AM 28.7369 127.2047 235° Southwest  Level Estimated
Thu 01:57:00 AM 28.6803 127.1117 235° Southwest  Level Estimated
Thu 01:58:00 AM 28.6237 127.0189 235° Southwest  Level Estimated
Thu 01:59:00 AM 28.5670 126.9261 235° Southwest  Level Estimated
Thu 02:00:00 AM 28.5103 126.8335 235° Southwest  Level Estimated
Thu 02:01:00 AM 28.4534 126.7409 235° Southwest  Level Estimated
Thu 02:02:00 AM 28.3966 126.6485 235° Southwest  Level Estimated
Thu 02:03:00 AM 28.3396 126.5561 235° Southwest  Level Estimated
Thu 02:04:00 AM 28.2826 126.4638 235° Southwest  Level Estimated
Thu 02:05:00 AM 28.2256 126.3717 235° Southwest  Level Estimated
Thu 02:06:00 AM 28.1685 126.2796 235° Southwest  Level Estimated
Thu 02:07:00 AM 28.1113 126.1877 235° Southwest  Level Estimated
Thu 02:08:00 AM 28.0540 126.0958 235° Southwest  Level Estimated
Thu 02:09:00 AM 27.9967 126.0040 235° Southwest  Level Estimated
Thu 02:10:00 AM 27.9394 125.9124 235° Southwest  Level Estimated
Thu 02:11:00 AM 27.8819 125.8208 235° Southwest  Level Estimated
Thu 02:12:00 AM 27.8244 125.7293 235° Southwest  Level Estimated
Thu 02:13:00 AM 27.7669 125.6379 235° Southwest  Level Estimated
Thu 02:14:00 AM 27.7093 125.5467 235° Southwest  Level Estimated
Thu 02:15:00 AM 27.6516 125.4555 234° Southwest  Level Estimated
Thu 02:16:00 AM 27.5939 125.3644 234° Southwest  Level Estimated
Thu 02:17:00 AM 27.5361 125.2734 234° Southwest  Level Estimated
Thu 02:18:00 AM 27.4782 125.1825 234° Southwest  Level Estimated
Thu 02:19:00 AM 27.4203 125.0917 234° Southwest  Level Estimated
Thu 02:20:00 AM 27.3624 125.0010 234° Southwest  Level Estimated
Thu 02:21:00 AM 27.3043 124.9104 234° Southwest  Level Estimated
Thu 02:22:00 AM 27.2463 124.8199 234° Southwest  Level Estimated
Thu 02:23:00 AM 27.1881 124.7295 234° Southwest  Level Estimated
Thu 02:24:00 AM 27.1299 124.6391 234° Southwest  Level Estimated
Thu 02:25:00 AM 27.0717 124.5489 234° Southwest  Level Estimated
Thu 02:26:00 AM 27.0134 124.4588 234° Southwest  Level Estimated
Thu 02:27:00 AM 26.9550 124.3687 234° Southwest  Level Estimated
Thu 02:28:00 AM 26.8966 124.2788 234° Southwest  Level Estimated
Thu 02:29:00 AM 26.8381 124.1889 234° Southwest  Level Estimated
Thu 02:30:00 AM 26.7796 124.0992 234° Southwest  Level Estimated
Thu 02:31:00 AM 26.7209 124.0095 234° Southwest  Level Estimated
Thu 02:32:00 AM 26.6623 123.9199 234° Southwest  Level Estimated
Thu 02:33:00 AM 26.6036 123.8304 234° Southwest  Level Estimated
Thu 02:34:00 AM 26.5448 123.7410 234° Southwest  Level Estimated
Thu 02:35:00 AM 26.4860 123.6517 234° Southwest  Level Estimated
Thu 02:36:00 AM 26.4271 123.5625 234° Southwest  Level Estimated
Thu 02:37:00 AM 26.3682 123.4734 234° Southwest  Level Estimated
Thu 02:38:00 AM 26.3092 123.3844 234° Southwest  Level Estimated
Thu 02:39:00 AM 26.2502 123.2954 234° Southwest  Level Estimated
Thu 02:40:00 AM 26.1911 123.2066 233° Southwest  Level Estimated
Thu 02:41:00 AM 26.1319 123.1178 233° Southwest  Level Estimated
Thu 02:42:00 AM 26.0727 123.0291 233° Southwest  Level Estimated
Thu 02:43:00 AM 26.0135 122.9406 233° Southwest  Level Estimated
Thu 02:44:00 AM 25.9541 122.8521 233° Southwest  Level Estimated
Thu 02:45:00 AM 25.8948 122.7637 233° Southwest  Level Estimated
Thu 02:46:00 AM 25.8354 122.6753 233° Southwest  Level Estimated
Thu 02:47:00 AM 25.7759 122.5871 233° Southwest  Level Estimated
Thu 02:48:00 AM 25.7164 122.4990 233° Southwest  Level Estimated
Thu 02:49:00 AM 25.6568 122.4109 233° Southwest  Level Estimated
Thu 02:50:00 AM 25.5972 122.3230 233° Southwest  Level Estimated
Thu 02:51:00 AM 25.5375 122.2351 233° Southwest  Level Estimated
Thu 02:52:00 AM 25.4777 122.1473 233° Southwest  Level Estimated
Thu 02:53:00 AM 25.4179 122.0596 233° Southwest  Level Estimated
Thu 02:54:00 AM 25.3581 121.9720 233° Southwest  Level Estimated
Thu 02:55:00 AM 25.2982 121.8845 233° Southwest  Level Estimated
Thu 02:56:00 AM 25.2383 121.7971 233° Southwest  Level Estimated
Thu 02:57:00 AM 25.1783 121.7097 233° Southwest  Level Estimated
Thu 02:58:00 AM 25.1182 121.6224 233° Southwest  Level Estimated
Thu 02:59:00 AM 25.0694 121.5517 233° Southwest  Level Estimated
Thu 03:00:00 AM 25.0694 121.5517 326° Northwest  Level Estimated
Thu 03:01:00 AM 25.0694 121.5517 326° Northwest  Level Estimated
Thu 03:02:00 AM 25.0694 121.5517 326° Northwest  Level Estimated

Login

Don't have an account? Register now (free) for customized features, flight alerts, and more!